sensor_id;sensor_type;location;lat;lon;timestamp;P1;durP1;ratioP1;P2;durP2;ratioP2
24587;SDS011;12744;52.270;9.746;2022-08-01T00:00:17;8.30;;;5.25;;
24587;SDS011;12744;52.270;9.746;2022-08-01T00:02:54;10.75;;;5.18;;
24587;SDS011;12744;52.270;9.746;2022-08-01T00:05:33;7.50;;;4.60;;
24587;SDS011;12744;52.270;9.746;2022-08-01T00:08:04;9.68;;;5.20;;
24587;SDS011;12744;52.270;9.746;2022-08-01T00:10:38;7.07;;;5.18;;
24587;SDS011;12744;52.270;9.746;2022-08-01T00:13:12;5.78;;;4.63;;
24587;SDS011;12744;52.270;9.746;2022-08-01T00:15:52;6.68;;;5.15;;
24587;SDS011;12744;52.270;9.746;2022-08-01T00:18:23;9.90;;;4.97;;
24587;SDS011;12744;52.270;9.746;2022-08-01T00:20:58;7.85;;;5.40;;
24587;SDS011;12744;52.270;9.746;2022-08-01T00:23:29;8.20;;;5.28;;
24587;SDS011;12744;52.270;9.746;2022-08-01T00:26:01;6.72;;;5.50;;
24587;SDS011;12744;52.270;9.746;2022-08-01T00:28:33;8.38;;;5.72;;
24587;SDS011;12744;52.270;9.746;2022-08-01T00:31:07;6.47;;;5.68;;
24587;SDS011;12744;52.270;9.746;2022-08-01T00:33:39;9.32;;;5.30;;
24587;SDS011;12744;52.270;9.746;2022-08-01T00:36:13;10.00;;;5.55;;
24587;SDS011;12744;52.270;9.746;2022-08-01T00:38:47;13.43;;;5.55;;
24587;SDS011;12744;52.270;9.746;2022-08-01T00:41:18;7.60;;;5.05;;
24587;SDS011;12744;52.270;9.746;2022-08-01T00:43:49;10.18;;;5.47;;
24587;SDS011;12744;52.270;9.746;2022-08-01T00:46:23;7.60;;;5.05;;
24587;SDS011;12744;52.270;9.746;2022-08-01T00:48:57;6.75;;;4.95;;
24587;SDS011;12744;52.270;9.746;2022-08-01T00:51:29;6.03;;;4.85;;
24587;SDS011;12744;52.270;9.746;2022-08-01T00:54:03;5.13;;;4.60;;
24587;SDS011;12744;52.270;9.746;2022-08-01T00:56:38;15.77;;;4.88;;
24587;SDS011;12744;52.270;9.746;2022-08-01T00:59:09;7.28;;;4.88;;
24587;SDS011;12744;52.270;9.746;2022-08-01T01:01:54;8.85;;;5.53;;
24587;SDS011;12744;52.270;9.746;2022-08-01T01:04:35;12.32;;;5.35;;
24587;SDS011;12744;52.270;9.746;2022-08-01T01:07:09;12.88;;;6.15;;
24587;SDS011;12744;52.270;9.746;2022-08-01T01:10:25;6.03;;;4.13;;
24587;SDS011;12744;52.270;9.746;2022-08-01T01:13:22;9.85;;;4.45;;
24587;SDS011;12744;52.270;9.746;2022-08-01T01:16:10;5.90;;;4.40;;
24587;SDS011;12744;52.270;9.746;2022-08-01T01:18:49;7.13;;;4.50;;
24587;SDS011;12744;52.270;9.746;2022-08-01T01:27:24;4.70;;;3.22;;
24587;SDS011;12744;52.270;9.746;2022-08-01T01:30:04;7.70;;;3.75;;
24587;SDS011;12744;52.270;9.746;2022-08-01T01:32:46;4.40;;;4.00;;
24587;SDS011;12744;52.270;9.746;2022-08-01T01:35:30;6.80;;;3.47;;
24587;SDS011;12744;52.270;9.746;2022-08-01T01:38:41;4.00;;;3.60;;
24587;SDS011;12744;52.270;9.746;2022-08-01T01:41:22;6.72;;;3.58;;
24587;SDS011;12744;52.270;9.746;2022-08-01T01:44:07;7.05;;;3.67;;
24587;SDS011;12744;52.270;9.746;2022-08-01T01:46:47;6.97;;;3.70;;
24587;SDS011;12744;52.270;9.746;2022-08-01T01:49:21;5.82;;;3.65;;
24587;SDS011;12744;52.270;9.746;2022-08-01T01:52:01;4.90;;;3.40;;
24587;SDS011;12744;52.270;9.746;2022-08-01T01:54:39;5.03;;;3.40;;
24587;SDS011;12744;52.270;9.746;2022-08-01T01:57:42;4.60;;;3.47;;
24587;SDS011;12744;52.270;9.746;2022-08-01T02:00:18;4.63;;;3.35;;
24587;SDS011;12744;52.270;9.746;2022-08-01T02:02:55;4.57;;;3.72;;
24587;SDS011;12744;52.270;9.746;2022-08-01T02:05:31;8.25;;;4.35;;
24587;SDS011;12744;52.270;9.746;2022-08-01T02:08:06;6.50;;;3.58;;
24587;SDS011;12744;52.270;9.746;2022-08-01T02:10:40;7.88;;;4.20;;
24587;SDS011;12744;52.270;9.746;2022-08-01T02:16:10;10.95;;;5.75;;
24587;SDS011;12744;52.270;9.746;2022-08-01T02:18:45;7.57;;;4.93;;
24587;SDS011;12744;52.270;9.746;2022-08-01T02:21:18;6.22;;;4.80;;
24587;SDS011;12744;52.270;9.746;2022-08-01T02:24:15;4.88;;;3.60;;
24587;SDS011;12744;52.270;9.746;2022-08-01T02:26:53;3.33;;;2.30;;
24587;SDS011;12744;52.270;9.746;2022-08-01T02:29:33;5.90;;;2.08;;
24587;SDS011;12744;52.270;9.746;2022-08-01T02:32:10;3.80;;;1.55;;
24587;SDS011;12744;52.270;9.746;2022-08-01T02:34:48;1.77;;;1.40;;
24587;SDS011;12744;52.270;9.746;2022-08-01T02:37:28;3.20;;;1.60;;
24587;SDS011;12744;52.270;9.746;2022-08-01T02:40:04;2.28;;;1.58;;
24587;SDS011;12744;52.270;9.746;2022-08-01T02:42:42;2.85;;;1.42;;
24587;SDS011;12744;52.270;9.746;2022-08-01T02:45:24;3.03;;;1.27;;
24587;SDS011;12744;52.270;9.746;2022-08-01T02:48:06;2.30;;;2.00;;
24587;SDS011;12744;52.270;9.746;2022-08-01T02:50:47;3.30;;;1.83;;
24587;SDS011;12744;52.270;9.746;2022-08-01T02:53:26;3.40;;;2.15;;
24587;SDS011;12744;52.270;9.746;2022-08-01T02:56:06;4.70;;;2.10;;
24587;SDS011;12744;52.270;9.746;2022-08-01T02:58:39;2.65;;;2.45;;
24587;SDS011;12744;52.270;9.746;2022-08-01T03:01:21;5.00;;;2.28;;
24587;SDS011;12744;52.270;9.746;2022-08-01T03:03:53;6.55;;;2.58;;
24587;SDS011;12744;52.270;9.746;2022-08-01T03:06:27;5.05;;;2.60;;
24587;SDS011;12744;52.270;9.746;2022-08-01T03:09:03;4.90;;;3.38;;
24587;SDS011;12744;52.270;9.746;2022-08-01T03:11:48;4.57;;;3.38;;
24587;SDS011;12744;52.270;9.746;2022-08-01T03:14:20;9.27;;;3.75;;
24587;SDS011;12744;52.270;9.746;2022-08-01T03:16:54;7.13;;;4.70;;
24587;SDS011;12744;52.270;9.746;2022-08-01T03:22:12;9.90;;;4.43;;
24587;SDS011;12744;52.270;9.746;2022-08-01T03:24:50;5.95;;;4.38;;
24587;SDS011;12744;52.270;9.746;2022-08-01T03:27:26;7.15;;;3.92;;
24587;SDS011;12744;52.270;9.746;2022-08-01T03:30:04;6.13;;;4.40;;
24587;SDS011;12744;52.270;9.746;2022-08-01T03:32:41;4.90;;;3.95;;
24587;SDS011;12744;52.270;9.746;2022-08-01T03:35:15;10.60;;;4.80;;
24587;SDS011;12744;52.270;9.746;2022-08-01T03:37:50;9.10;;;5.00;;
24587;SDS011;12744;52.270;9.746;2022-08-01T03:43:16;7.13;;;4.50;;
24587;SDS011;12744;52.270;9.746;2022-08-01T03:45:56;10.07;;;4.30;;
24587;SDS011;12744;52.270;9.746;2022-08-01T03:49:03;9.52;;;4.53;;
24587;SDS011;12744;52.270;9.746;2022-08-01T03:51:45;5.50;;;4.07;;
24587;SDS011;12744;52.270;9.746;2022-08-01T03:54:23;5.35;;;4.85;;
24587;SDS011;12744;52.270;9.746;2022-08-01T03:56:59;7.90;;;3.88;;
24587;SDS011;12744;52.270;9.746;2022-08-01T03:59:35;6.47;;;4.38;;
24587;SDS011;12744;52.270;9.746;2022-08-01T04:02:11;6.82;;;4.47;;
24587;SDS011;12744;52.270;9.746;2022-08-01T04:04:50;5.25;;;4.05;;
24587;SDS011;12744;52.270;9.746;2022-08-01T04:07:29;5.78;;;4.07;;
24587;SDS011;12744;52.270;9.746;2022-08-01T04:10:14;9.40;;;4.45;;
24587;SDS011;12744;52.270;9.746;2022-08-01T04:12:45;6.70;;;4.68;;
24587;SDS011;12744;52.270;9.746;2022-08-01T04:15:16;6.65;;;5.43;;
24587;SDS011;12744;52.270;9.746;2022-08-01T04:17:54;8.43;;;4.78;;
24587;SDS011;12744;52.270;9.746;2022-08-01T04:20:25;5.80;;;5.20;;
24587;SDS011;12744;52.270;9.746;2022-08-01T04:22:57;5.28;;;4.32;;
24587;SDS011;12744;52.270;9.746;2022-08-01T04:25:32;13.63;;;4.22;;
24587;SDS011;12744;52.270;9.746;2022-08-01T04:28:10;6.18;;;5.30;;
24587;SDS011;12744;52.270;9.746;2022-08-01T04:30:47;7.07;;;4.43;;
24587;SDS011;12744;52.270;9.746;2022-08-01T04:33:22;5.28;;;4.03;;
24587;SDS011;12744;52.270;9.746;2022-08-01T04:35:58;5.18;;;4.07;;
24587;SDS011;12744;52.270;9.746;2022-08-01T04:38:35;5.18;;;3.85;;
24587;SDS011;12744;52.270;9.746;2022-08-01T04:41:16;4.75;;;3.97;;
24587;SDS011;12744;52.270;9.746;2022-08-01T04:43:51;3.85;;;3.45;;
24587;SDS011;12744;52.270;9.746;2022-08-01T04:46:23;6.25;;;3.70;;
24587;SDS011;12744;52.270;9.746;2022-08-01T04:48:54;4.30;;;3.55;;
24587;SDS011;12744;52.270;9.746;2022-08-01T04:51:26;4.97;;;4.35;;
24587;SDS011;12744;52.270;9.746;2022-08-01T04:53:57;5.72;;;3.97;;
24587;SDS011;12744;52.270;9.746;2022-08-01T04:56:37;5.68;;;5.07;;
24587;SDS011;12744;52.270;9.746;2022-08-01T04:59:16;7.45;;;5.10;;
24587;SDS011;12744;52.270;9.746;2022-08-01T05:02:13;9.15;;;5.47;;
24587;SDS011;12744;52.270;9.746;2022-08-01T05:04:45;5.97;;;4.95;;
24587;SDS011;12744;52.270;9.746;2022-08-01T05:07:17;8.70;;;5.70;;
24587;SDS011;12744;52.270;9.746;2022-08-01T05:09:51;6.30;;;5.60;;
24587;SDS011;12744;52.270;9.746;2022-08-01T05:12:22;5.75;;;4.32;;
24587;SDS011;12744;52.270;9.746;2022-08-01T05:14:56;6.43;;;3.55;;
24587;SDS011;12744;52.270;9.746;2022-08-01T05:17:39;4.78;;;3.80;;
24587;SDS011;12744;52.270;9.746;2022-08-01T05:20:11;4.65;;;3.97;;
24587;SDS011;12744;52.270;9.746;2022-08-01T05:22:42;5.67;;;4.60;;
24587;SDS011;12744;52.270;9.746;2022-08-01T05:25:16;4.25;;;3.17;;
24587;SDS011;12744;52.270;9.746;2022-08-01T05:27:51;3.50;;;3.08;;
24587;SDS011;12744;52.270;9.746;2022-08-01T05:30:22;3.63;;;3.17;;
24587;SDS011;12744;52.270;9.746;2022-08-01T05:33:00;4.38;;;3.22;;
24587;SDS011;12744;52.270;9.746;2022-08-01T05:35:34;3.80;;;3.25;;
24587;SDS011;12744;52.270;9.746;2022-08-01T05:38:05;5.38;;;3.88;;
24587;SDS011;12744;52.270;9.746;2022-08-01T05:40:36;3.72;;;3.33;;
24587;SDS011;12744;52.270;9.746;2022-08-01T05:43:15;3.95;;;3.30;;
24587;SDS011;12744;52.270;9.746;2022-08-01T05:45:46;3.95;;;2.90;;
24587;SDS011;12744;52.270;9.746;2022-08-01T05:48:21;3.28;;;2.60;;
24587;SDS011;12744;52.270;9.746;2022-08-01T05:50:53;2.40;;;2.20;;
24587;SDS011;12744;52.270;9.746;2022-08-01T05:53:24;2.65;;;2.45;;
24587;SDS011;12744;52.270;9.746;2022-08-01T05:55:58;2.38;;;2.17;;
24587;SDS011;12744;52.270;9.746;2022-08-01T05:58:30;4.32;;;2.20;;
24587;SDS011;12744;52.270;9.746;2022-08-01T06:01:02;2.20;;;2.00;;
24587;SDS011;12744;52.270;9.746;2022-08-01T06:03:33;3.38;;;2.22;;
24587;SDS011;12744;52.270;9.746;2022-08-01T06:06:07;6.50;;;2.35;;
24587;SDS011;12744;52.270;9.746;2022-08-01T06:08:38;2.72;;;2.53;;
24587;SDS011;12744;52.270;9.746;2022-08-01T06:11:09;3.17;;;2.88;;
24587;SDS011;12744;52.270;9.746;2022-08-01T06:13:40;5.57;;;3.25;;
24587;SDS011;12744;52.270;9.746;2022-08-01T06:16:11;7.25;;;3.20;;
24587;SDS011;12744;52.270;9.746;2022-08-01T06:18:42;3.97;;;3.17;;
24587;SDS011;12744;52.270;9.746;2022-08-01T06:21:14;6.20;;;3.92;;
24587;SDS011;12744;52.270;9.746;2022-08-01T06:23:45;4.32;;;3.55;;
24587;SDS011;12744;52.270;9.746;2022-08-01T06:26:19;10.27;;;4.30;;
24587;SDS011;12744;52.270;9.746;2022-08-01T06:28:50;4.22;;;3.63;;
24587;SDS011;12744;52.270;9.746;2022-08-01T06:31:25;5.13;;;3.80;;
24587;SDS011;12744;52.270;9.746;2022-08-01T06:33:56;7.07;;;4.95;;
24587;SDS011;12744;52.270;9.746;2022-08-01T06:36:30;6.47;;;4.75;;
24587;SDS011;12744;52.270;9.746;2022-08-01T06:39:02;7.10;;;4.82;;
24587;SDS011;12744;52.270;9.746;2022-08-01T06:41:33;4.63;;;4.18;;
24587;SDS011;12744;52.270;9.746;2022-08-01T06:44:20;4.85;;;3.33;;
24587;SDS011;12744;52.270;9.746;2022-08-01T06:47:04;5.38;;;4.22;;
24587;SDS011;12744;52.270;9.746;2022-08-01T06:49:39;5.20;;;4.22;;
24587;SDS011;12744;52.270;9.746;2022-08-01T06:52:10;9.98;;;4.47;;
24587;SDS011;12744;52.270;9.746;2022-08-01T06:54:41;4.93;;;4.40;;
24587;SDS011;12744;52.270;9.746;2022-08-01T06:57:12;4.88;;;4.38;;
24587;SDS011;12744;52.270;9.746;2022-08-01T06:59:49;5.97;;;2.00;;
24587;SDS011;12744;52.270;9.746;2022-08-01T07:02:21;3.28;;;1.70;;
24587;SDS011;12744;52.270;9.746;2022-08-01T07:04:53;2.45;;;1.63;;
24587;SDS011;12744;52.270;9.746;2022-08-01T07:07:24;1.90;;;1.80;;
24587;SDS011;12744;52.270;9.746;2022-08-01T07:09:55;2.35;;;2.15;;
24587;SDS011;12744;52.270;9.746;2022-08-01T07:12:26;2.83;;;1.75;;
24587;SDS011;12744;52.270;9.746;2022-08-01T07:15:00;1.60;;;1.50;;
24587;SDS011;12744;52.270;9.746;2022-08-01T07:17:38;2.10;;;1.95;;
24587;SDS011;12744;52.270;9.746;2022-08-01T07:20:11;2.53;;;1.58;;
24587;SDS011;12744;52.270;9.746;2022-08-01T07:22:43;1.45;;;1.35;;
24587;SDS011;12744;52.270;9.746;2022-08-01T07:25:14;4.50;;;1.80;;
24587;SDS011;12744;52.270;9.746;2022-08-01T07:27:54;2.45;;;1.98;;
24587;SDS011;12744;52.270;9.746;2022-08-01T07:30:28;2.67;;;1.80;;
24587;SDS011;12744;52.270;9.746;2022-08-01T07:32:59;2.53;;;2.30;;
24587;SDS011;12744;52.270;9.746;2022-08-01T07:35:31;3.55;;;2.58;;
24587;SDS011;12744;52.270;9.746;2022-08-01T07:38:02;4.07;;;3.00;;
24587;SDS011;12744;52.270;9.746;2022-08-01T07:40:33;4.68;;;2.85;;
24587;SDS011;12744;52.270;9.746;2022-08-01T07:43:05;3.70;;;2.67;;
24587;SDS011;12744;52.270;9.746;2022-08-01T07:45:36;7.50;;;3.08;;
24587;SDS011;12744;52.270;9.746;2022-08-01T07:48:07;3.45;;;3.13;;
24587;SDS011;12744;52.270;9.746;2022-08-01T07:50:38;2.28;;;2.08;;
24587;SDS011;12744;52.270;9.746;2022-08-01T07:53:09;3.25;;;2.38;;
24587;SDS011;12744;52.270;9.746;2022-08-01T07:55:43;2.85;;;2.33;;
24587;SDS011;12744;52.270;9.746;2022-08-01T07:58:15;5.47;;;2.45;;
24587;SDS011;12744;52.270;9.746;2022-08-01T08:00:49;2.72;;;2.53;;
24587;SDS011;12744;52.270;9.746;2022-08-01T08:03:20;2.83;;;2.58;;
24587;SDS011;12744;52.270;9.746;2022-08-01T08:05:55;3.13;;;2.47;;
24587;SDS011;12744;52.270;9.746;2022-08-01T08:08:33;2.72;;;2.42;;
24587;SDS011;12744;52.270;9.746;2022-08-01T08:11:08;2.40;;;1.70;;
24587;SDS011;12744;52.270;9.746;2022-08-01T08:13:45;2.38;;;2.15;;
24587;SDS011;12744;52.270;9.746;2022-08-01T08:16:16;2.90;;;2.05;;
24587;SDS011;12744;52.270;9.746;2022-08-01T08:18:48;1.55;;;1.45;;
24587;SDS011;12744;52.270;9.746;2022-08-01T08:21:19;2.20;;;1.38;;
24587;SDS011;12744;52.270;9.746;2022-08-01T08:23:50;2.15;;;1.33;;
24587;SDS011;12744;52.270;9.746;2022-08-01T08:26:40;1.58;;;1.20;;
24587;SDS011;12744;52.270;9.746;2022-08-01T08:29:11;3.42;;;1.35;;
24587;SDS011;12744;52.270;9.746;2022-08-01T08:31:51;1.30;;;1.10;;
24587;SDS011;12744;52.270;9.746;2022-08-01T08:37:05;2.03;;;1.40;;
24587;SDS011;12744;52.270;9.746;2022-08-01T08:39:36;4.10;;;1.60;;
24587;SDS011;12744;52.270;9.746;2022-08-01T08:42:08;5.97;;;1.63;;
24587;SDS011;12744;52.270;9.746;2022-08-01T08:44:43;2.33;;;1.40;;
24587;SDS011;12744;52.270;9.746;2022-08-01T08:47:15;3.15;;;1.60;;
24587;SDS011;12744;52.270;9.746;2022-08-01T08:49:47;2.15;;;1.63;;
24587;SDS011;12744;52.270;9.746;2022-08-01T08:52:23;4.95;;;1.95;;
24587;SDS011;12744;52.270;9.746;2022-08-01T08:54:58;2.10;;;1.48;;
24587;SDS011;12744;52.270;9.746;2022-08-01T08:57:30;1.40;;;1.30;;
24587;SDS011;12744;52.270;9.746;2022-08-01T09:00:01;1.98;;;1.63;;
24587;SDS011;12744;52.270;9.746;2022-08-01T09:02:33;1.48;;;1.33;;
24587;SDS011;12744;52.270;9.746;2022-08-01T09:05:12;2.08;;;1.33;;
24587;SDS011;12744;52.270;9.746;2022-08-01T09:07:44;3.28;;;1.08;;
24587;SDS011;12744;52.270;9.746;2022-08-01T09:10:31;1.20;;;1.10;;
24587;SDS011;12744;52.270;9.746;2022-08-01T09:13:10;1.35;;;1.20;;
24587;SDS011;12744;52.270;9.746;2022-08-01T09:15:48;5.20;;;1.40;;
24587;SDS011;12744;52.270;9.746;2022-08-01T09:18:33;1.02;;;0.90;;
24587;SDS011;12744;52.270;9.746;2022-08-01T09:21:19;2.72;;;1.52;;
24587;SDS011;12744;52.270;9.746;2022-08-01T09:23:53;1.45;;;1.35;;
24587;SDS011;12744;52.270;9.746;2022-08-01T09:26:28;1.20;;;1.10;;
24587;SDS011;12744;52.270;9.746;2022-08-01T09:29:25;3.33;;;1.50;;
24587;SDS011;12744;52.270;9.746;2022-08-01T09:31:57;2.30;;;1.23;;
24587;SDS011;12744;52.270;9.746;2022-08-01T09:34:37;2.25;;;1.40;;
24587;SDS011;12744;52.270;9.746;2022-08-01T09:37:08;1.67;;;1.52;;
24587;SDS011;12744;52.270;9.746;2022-08-01T09:39:40;2.83;;;1.30;;
24587;SDS011;12744;52.270;9.746;2022-08-01T09:42:23;1.55;;;1.23;;
24587;SDS011;12744;52.270;9.746;2022-08-01T09:44:56;4.35;;;1.70;;
24587;SDS011;12744;52.270;9.746;2022-08-01T09:47:37;1.17;;;1.08;;
24587;SDS011;12744;52.270;9.746;2022-08-01T09:50:13;1.90;;;1.35;;
24587;SDS011;12744;52.270;9.746;2022-08-01T09:53:14;2.30;;;1.45;;
24587;SDS011;12744;52.270;9.746;2022-08-01T09:55:49;2.30;;;1.52;;
24587;SDS011;12744;52.270;9.746;2022-08-01T09:58:28;2.92;;;1.50;;
24587;SDS011;12744;52.270;9.746;2022-08-01T10:01:42;4.00;;;1.52;;
24587;SDS011;12744;52.270;9.746;2022-08-01T10:04:20;1.10;;;1.10;;
24587;SDS011;12744;52.270;9.746;2022-08-01T10:06:57;1.23;;;1.13;;
24587;SDS011;12744;52.270;9.746;2022-08-01T10:09:40;1.30;;;1.15;;
24587;SDS011;12744;52.270;9.746;2022-08-01T10:12:26;4.65;;;1.20;;
24587;SDS011;12744;52.270;9.746;2022-08-01T10:14:57;1.27;;;0.90;;
24587;SDS011;12744;52.270;9.746;2022-08-01T10:17:41;1.13;;;1.02;;
24587;SDS011;12744;52.270;9.746;2022-08-01T10:20:23;4.28;;;1.10;;
24587;SDS011;12744;52.270;9.746;2022-08-01T10:23:14;3.28;;;1.90;;
24587;SDS011;12744;52.270;9.746;2022-08-01T10:26:03;4.00;;;2.00;;
24587;SDS011;12744;52.270;9.746;2022-08-01T10:28:45;2.30;;;2.10;;
24587;SDS011;12744;52.270;9.746;2022-08-01T10:31:22;6.47;;;1.90;;
24587;SDS011;12744;52.270;9.746;2022-08-01T10:33:57;2.45;;;2.05;;
24587;SDS011;12744;52.270;9.746;2022-08-01T10:36:42;3.70;;;2.10;;
24587;SDS011;12744;52.270;9.746;2022-08-01T10:39:18;3.33;;;1.73;;
24587;SDS011;12744;52.270;9.746;2022-08-01T10:41:52;3.35;;;2.42;;
24587;SDS011;12744;52.270;9.746;2022-08-01T10:44:31;2.83;;;2.22;;
24587;SDS011;12744;52.270;9.746;2022-08-01T10:47:11;4.47;;;1.98;;
24587;SDS011;12744;52.270;9.746;2022-08-01T10:50:04;6.07;;;2.20;;
24587;SDS011;12744;52.270;9.746;2022-08-01T10:58:48;2.17;;;1.98;;
24587;SDS011;12744;52.270;9.746;2022-08-01T11:01:32;3.85;;;2.20;;
24587;SDS011;12744;52.270;9.746;2022-08-01T11:04:42;4.30;;;2.53;;
24587;SDS011;12744;52.270;9.746;2022-08-01T11:07:38;3.50;;;2.42;;
24587;SDS011;12744;52.270;9.746;2022-08-01T11:13:10;4.78;;;3.53;;
24587;SDS011;12744;52.270;9.746;2022-08-01T11:15:42;4.82;;;3.42;;
24587;SDS011;12744;52.270;9.746;2022-08-01T11:21:07;8.68;;;3.20;;
24587;SDS011;12744;52.270;9.746;2022-08-01T11:23:48;2.90;;;2.60;;
24587;SDS011;12744;52.270;9.746;2022-08-01T11:26:28;4.03;;;2.70;;
24587;SDS011;12744;52.270;9.746;2022-08-01T11:32:48;3.20;;;1.98;;
24587;SDS011;12744;52.270;9.746;2022-08-01T11:35:23;7.53;;;2.67;;
24587;SDS011;12744;52.270;9.746;2022-08-01T11:41:11;6.38;;;2.22;;
24587;SDS011;12744;52.270;9.746;2022-08-01T11:46:52;5.50;;;2.72;;
24587;SDS011;12744;52.270;9.746;2022-08-01T11:49:26;7.65;;;2.75;;
24587;SDS011;12744;52.270;9.746;2022-08-01T11:52:24;7.88;;;2.97;;
24587;SDS011;12744;52.270;9.746;2022-08-01T11:57:41;6.03;;;2.58;;
24587;SDS011;12744;52.270;9.746;2022-08-01T12:00:22;8.73;;;3.20;;
24587;SDS011;12744;52.270;9.746;2022-08-01T12:05:58;7.82;;;2.67;;
24587;SDS011;12744;52.270;9.746;2022-08-01T12:08:31;6.43;;;2.67;;
24587;SDS011;12744;52.270;9.746;2022-08-01T12:11:14;7.80;;;3.10;;
24587;SDS011;12744;52.270;9.746;2022-08-01T12:13:45;2.85;;;2.45;;
24587;SDS011;12744;52.270;9.746;2022-08-01T12:16:27;10.35;;;2.97;;
24587;SDS011;12744;52.270;9.746;2022-08-01T12:22:11;5.55;;;2.80;;
24587;SDS011;12744;52.270;9.746;2022-08-01T12:25:25;4.97;;;2.50;;
24587;SDS011;12744;52.270;9.746;2022-08-01T12:28:01;13.93;;;2.95;;
24587;SDS011;12744;52.270;9.746;2022-08-01T12:30:49;3.15;;;2.22;;
24587;SDS011;12744;52.270;9.746;2022-08-01T12:33:49;5.40;;;2.58;;
24587;SDS011;12744;52.270;9.746;2022-08-01T12:36:46;4.43;;;2.43;;
24587;SDS011;12744;52.270;9.746;2022-08-01T12:39:35;6.20;;;2.65;;
24587;SDS011;12744;52.270;9.746;2022-08-01T12:42:17;5.18;;;2.28;;
24587;SDS011;12744;52.270;9.746;2022-08-01T12:44:54;4.05;;;2.58;;
24587;SDS011;12744;52.270;9.746;2022-08-01T12:47:43;8.48;;;2.22;;
24587;SDS011;12744;52.270;9.746;2022-08-01T12:50:50;5.45;;;2.47;;
24587;SDS011;12744;52.270;9.746;2022-08-01T12:53:47;5.93;;;2.75;;
24587;SDS011;12744;52.270;9.746;2022-08-01T12:56:31;3.90;;;2.33;;
24587;SDS011;12744;52.270;9.746;2022-08-01T12:59:19;5.60;;;2.60;;
24587;SDS011;12744;52.270;9.746;2022-08-01T13:02:07;10.20;;;3.08;;
24587;SDS011;12744;52.270;9.746;2022-08-01T13:07:36;9.30;;;2.97;;
24587;SDS011;12744;52.270;9.746;2022-08-01T13:10:10;11.40;;;2.60;;
24587;SDS011;12744;52.270;9.746;2022-08-01T13:13:13;7.03;;;2.42;;
24587;SDS011;12744;52.270;9.746;2022-08-01T13:16:02;9.25;;;2.85;;
24587;SDS011;12744;52.270;9.746;2022-08-01T13:19:00;6.82;;;3.03;;
24587;SDS011;12744;52.270;9.746;2022-08-01T13:21:58;4.55;;;2.28;;
24587;SDS011;12744;52.270;9.746;2022-08-01T13:24:44;4.22;;;2.28;;
24587;SDS011;12744;52.270;9.746;2022-08-01T13:27:26;5.80;;;2.75;;
24587;SDS011;12744;52.270;9.746;2022-08-01T13:30:10;5.55;;;3.08;;
24587;SDS011;12744;52.270;9.746;2022-08-01T13:35:40;9.38;;;2.70;;
24587;SDS011;12744;52.270;9.746;2022-08-01T13:38:18;7.05;;;2.60;;
24587;SDS011;12744;52.270;9.746;2022-08-01T13:41:12;8.07;;;3.10;;
24587;SDS011;12744;52.270;9.746;2022-08-01T13:44:02;9.90;;;3.50;;
24587;SDS011;12744;52.270;9.746;2022-08-01T13:46:47;8.77;;;2.67;;
24587;SDS011;12744;52.270;9.746;2022-08-01T13:49:20;8.68;;;2.80;;
24587;SDS011;12744;52.270;9.746;2022-08-01T13:52:17;11.80;;;2.85;;
24587;SDS011;12744;52.270;9.746;2022-08-01T13:55:01;6.10;;;2.75;;
24587;SDS011;12744;52.270;9.746;2022-08-01T13:58:03;5.75;;;3.13;;
24587;SDS011;12744;52.270;9.746;2022-08-01T14:00:55;9.75;;;3.30;;
24587;SDS011;12744;52.270;9.746;2022-08-01T14:03:29;9.95;;;3.40;;
24587;SDS011;12744;52.270;9.746;2022-08-01T14:06:08;5.78;;;2.92;;
24587;SDS011;12744;52.270;9.746;2022-08-01T14:09:08;9.88;;;3.38;;
24587;SDS011;12744;52.270;9.746;2022-08-01T14:12:08;6.57;;;3.13;;
24587;SDS011;12744;52.270;9.746;2022-08-01T14:14:40;6.90;;;2.90;;
24587;SDS011;12744;52.270;9.746;2022-08-01T14:20:33;6.18;;;2.90;;
24587;SDS011;12744;52.270;9.746;2022-08-01T14:23:17;7.63;;;3.25;;
24587;SDS011;12744;52.270;9.746;2022-08-01T14:25:57;7.40;;;3.10;;
24587;SDS011;12744;52.270;9.746;2022-08-01T14:28:28;7.00;;;2.88;;
24587;SDS011;12744;52.270;9.746;2022-08-01T14:31:03;5.88;;;3.20;;
24587;SDS011;12744;52.270;9.746;2022-08-01T14:33:38;6.78;;;2.67;;
24587;SDS011;12744;52.270;9.746;2022-08-01T14:36:09;5.07;;;3.03;;
24587;SDS011;12744;52.270;9.746;2022-08-01T14:38:40;8.25;;;3.33;;
24587;SDS011;12744;52.270;9.746;2022-08-01T14:41:17;9.77;;;3.63;;
24587;SDS011;12744;52.270;9.746;2022-08-01T14:43:55;6.47;;;3.17;;
24587;SDS011;12744;52.270;9.746;2022-08-01T14:46:59;8.60;;;3.47;;
24587;SDS011;12744;52.270;9.746;2022-08-01T14:49:26;9.07;;;3.30;;
24587;SDS011;12744;52.270;9.746;2022-08-01T14:52:06;5.50;;;2.83;;
24587;SDS011;12744;52.270;9.746;2022-08-01T14:54:37;6.65;;;3.55;;
24587;SDS011;12744;52.270;9.746;2022-08-01T14:57:09;12.00;;;3.80;;
24587;SDS011;12744;52.270;9.746;2022-08-01T14:59:43;10.60;;;3.75;;
24587;SDS011;12744;52.270;9.746;2022-08-01T15:02:18;9.20;;;3.47;;
24587;SDS011;12744;52.270;9.746;2022-08-01T15:04:49;13.18;;;3.83;;
24587;SDS011;12744;52.270;9.746;2022-08-01T15:07:30;7.43;;;3.33;;
24587;SDS011;12744;52.270;9.746;2022-08-01T15:10:09;9.60;;;3.10;;
24587;SDS011;12744;52.270;9.746;2022-08-01T15:12:40;8.32;;;3.53;;
24587;SDS011;12744;52.270;9.746;2022-08-01T15:15:12;8.13;;;3.30;;
24587;SDS011;12744;52.270;9.746;2022-08-01T15:17:46;9.48;;;3.65;;
24587;SDS011;12744;52.270;9.746;2022-08-01T15:20:17;11.93;;;3.50;;
24587;SDS011;12744;52.270;9.746;2022-08-01T15:22:48;11.35;;;3.50;;
24587;SDS011;12744;52.270;9.746;2022-08-01T15:25:20;8.73;;;3.28;;
24587;SDS011;12744;52.270;9.746;2022-08-01T15:27:51;6.20;;;2.88;;
24587;SDS011;12744;52.270;9.746;2022-08-01T15:30:22;8.43;;;3.00;;
24587;SDS011;12744;52.270;9.746;2022-08-01T15:32:53;7.90;;;3.15;;
24587;SDS011;12744;52.270;9.746;2022-08-01T15:35:27;8.15;;;3.33;;
24587;SDS011;12744;52.270;9.746;2022-08-01T15:37:58;15.23;;;3.63;;
24587;SDS011;12744;52.270;9.746;2022-08-01T15:40:33;12.43;;;4.22;;
24587;SDS011;12744;52.270;9.746;2022-08-01T15:43:06;11.73;;;3.42;;
24587;SDS011;12744;52.270;9.746;2022-08-01T15:45:38;22.15;;;3.90;;
24587;SDS011;12744;52.270;9.746;2022-08-01T15:48:09;7.53;;;3.00;;
24587;SDS011;12744;52.270;9.746;2022-08-01T15:50:40;8.75;;;3.00;;
24587;SDS011;12744;52.270;9.746;2022-08-01T15:53:11;10.40;;;3.78;;
24587;SDS011;12744;52.270;9.746;2022-08-01T15:55:43;16.60;;;3.22;;
24587;SDS011;12744;52.270;9.746;2022-08-01T15:58:14;8.88;;;3.20;;
24587;SDS011;12744;52.270;9.746;2022-08-01T16:00:45;8.35;;;3.55;;
24587;SDS011;12744;52.270;9.746;2022-08-01T16:03:16;10.00;;;3.15;;
24587;SDS011;12744;52.270;9.746;2022-08-01T16:05:47;8.68;;;3.25;;
24587;SDS011;12744;52.270;9.746;2022-08-01T16:11:11;8.77;;;3.15;;
24587;SDS011;12744;52.270;9.746;2022-08-01T16:13:46;11.07;;;3.30;;
24587;SDS011;12744;52.270;9.746;2022-08-01T16:16:18;6.78;;;2.50;;
24587;SDS011;12744;52.270;9.746;2022-08-01T16:19:03;5.78;;;3.03;;
24587;SDS011;12744;52.270;9.746;2022-08-01T16:21:35;6.03;;;2.42;;
24587;SDS011;12744;52.270;9.746;2022-08-01T16:24:06;7.55;;;1.90;;
24587;SDS011;12744;52.270;9.746;2022-08-01T16:26:37;7.93;;;2.50;;
24587;SDS011;12744;52.270;9.746;2022-08-01T16:29:08;7.40;;;2.22;;
24587;SDS011;12744;52.270;9.746;2022-08-01T16:31:44;6.57;;;2.20;;
24587;SDS011;12744;52.270;9.746;2022-08-01T16:34:18;6.70;;;2.42;;
24587;SDS011;12744;52.270;9.746;2022-08-01T16:36:50;9.18;;;2.50;;
24587;SDS011;12744;52.270;9.746;2022-08-01T16:39:22;11.32;;;2.63;;
24587;SDS011;12744;52.270;9.746;2022-08-01T16:41:57;7.50;;;2.90;;
24587;SDS011;12744;52.270;9.746;2022-08-01T16:44:28;6.90;;;2.63;;
24587;SDS011;12744;52.270;9.746;2022-08-01T16:46:59;10.73;;;2.75;;